sensor_id;sensor_type;location;lat;lon;timestamp;temperature;humidity
12015;DHT22;6066;48.138;16.402;2023-04-25T00:00:12;10.50;99.90
12015;DHT22;6066;48.138;16.402;2023-04-25T00:02:39;10.50;99.90
12015;DHT22;6066;48.138;16.402;2023-04-25T00:05:07;10.50;99.90
12015;DHT22;6066;48.138;16.402;2023-04-25T00:07:34;10.50;99.90
12015;DHT22;6066;48.138;16.402;2023-04-25T00:10:01;10.50;99.90
12015;DHT22;6066;48.138;16.402;2023-04-25T00:12:29;10.50;99.90
12015;DHT22;6066;48.138;16.402;2023-04-25T00:14:55;10.50;99.90
12015;DHT22;6066;48.138;16.402;2023-04-25T00:17:23;10.50;99.90
12015;DHT22;6066;48.138;16.402;2023-04-25T00:19:50;10.50;99.90
12015;DHT22;6066;48.138;16.402;2023-04-25T00:22:17;10.40;99.90
12015;DHT22;6066;48.138;16.402;2023-04-25T00:24:44;10.40;99.90
12015;DHT22;6066;48.138;16.402;2023-04-25T00:27:11;10.50;99.90
12015;DHT22;6066;48.138;16.402;2023-04-25T00:29:39;10.40;99.90
12015;DHT22;6066;48.138;16.402;2023-04-25T00:32:05;10.40;99.90
12015;DHT22;6066;48.138;16.402;2023-04-25T00:34:32;10.50;99.90
12015;DHT22;6066;48.138;16.402;2023-04-25T00:36:59;10.40;99.90
12015;DHT22;6066;48.138;16.402;2023-04-25T00:39:27;10.40;99.90
12015;DHT22;6066;48.138;16.402;2023-04-25T00:41:54;10.40;99.90
12015;DHT22;6066;48.138;16.402;2023-04-25T00:44:22;10.40;99.90
12015;DHT22;6066;48.138;16.402;2023-04-25T00:46:51;10.30;99.90
12015;DHT22;6066;48.138;16.402;2023-04-25T00:49:18;10.30;99.90
12015;DHT22;6066;48.138;16.402;2023-04-25T00:51:45;10.30;99.90
12015;DHT22;6066;48.138;16.402;2023-04-25T00:54:12;10.30;99.90
12015;DHT22;6066;48.138;16.402;2023-04-25T00:56:38;10.30;99.90
12015;DHT22;6066;48.138;16.402;2023-04-25T00:59:05;10.30;99.90
12015;DHT22;6066;48.138;16.402;2023-04-25T01:01:32;10.30;99.90
12015;DHT22;6066;48.138;16.402;2023-04-25T01:04:01;10.30;99.90
12015;DHT22;6066;48.138;16.402;2023-04-25T01:06:28;10.30;99.90
12015;DHT22;6066;48.138;16.402;2023-04-25T01:08:55;10.30;99.90
12015;DHT22;6066;48.138;16.402;2023-04-25T01:11:22;10.30;99.90
12015;DHT22;6066;48.138;16.402;2023-04-25T01:13:49;10.30;99.90
12015;DHT22;6066;48.138;16.402;2023-04-25T01:16:16;10.30;99.90
12015;DHT22;6066;48.138;16.402;2023-04-25T01:18:42;10.30;99.90
12015;DHT22;6066;48.138;16.402;2023-04-25T01:21:11;10.30;99.90
12015;DHT22;6066;48.138;16.402;2023-04-25T01:23:39;10.30;99.90
12015;DHT22;6066;48.138;16.402;2023-04-25T01:26:06;10.30;99.90
12015;DHT22;6066;48.138;16.402;2023-04-25T01:28:33;10.30;99.90
12015;DHT22;6066;48.138;16.402;2023-04-25T01:31:00;10.30;99.90
12015;DHT22;6066;48.138;16.402;2023-04-25T01:33:27;10.30;99.90
12015;DHT22;6066;48.138;16.402;2023-04-25T01:35:54;10.20;99.90
12015;DHT22;6066;48.138;16.402;2023-04-25T01:38:22;10.20;99.90
12015;DHT22;6066;48.138;16.402;2023-04-25T01:40:48;10.20;99.90
12015;DHT22;6066;48.138;16.402;2023-04-25T01:43:17;10.20;99.90
12015;DHT22;6066;48.138;16.402;2023-04-25T01:45:43;10.30;99.90
12015;DHT22;6066;48.138;16.402;2023-04-25T01:48:10;10.20;99.90
12015;DHT22;6066;48.138;16.402;2023-04-25T01:50:37;10.20;99.90
12015;DHT22;6066;48.138;16.402;2023-04-25T01:53:04;10.30;99.90
12015;DHT22;6066;48.138;16.402;2023-04-25T01:55:32;10.20;99.90
12015;DHT22;6066;48.138;16.402;2023-04-25T01:57:59;10.20;99.90
12015;DHT22;6066;48.138;16.402;2023-04-25T02:00:26;10.20;99.90
12015;DHT22;6066;48.138;16.402;2023-04-25T02:02:53;10.20;99.90
12015;DHT22;6066;48.138;16.402;2023-04-25T02:05:20;10.20;99.90
12015;DHT22;6066;48.138;16.402;2023-04-25T02:07:47;10.20;99.90
12015;DHT22;6066;48.138;16.402;2023-04-25T02:10:14;10.20;99.90
12015;DHT22;6066;48.138;16.402;2023-04-25T02:12:42;10.10;99.90
12015;DHT22;6066;48.138;16.402;2023-04-25T02:15:09;10.10;99.90
12015;DHT22;6066;48.138;16.402;2023-04-25T02:17:36;10.10;99.90
12015;DHT22;6066;48.138;16.402;2023-04-25T02:20:03;10.10;99.90
12015;DHT22;6066;48.138;16.402;2023-04-25T02:22:30;10.10;99.90
12015;DHT22;6066;48.138;16.402;2023-04-25T02:24:57;10.10;99.90
12015;DHT22;6066;48.138;16.402;2023-04-25T02:27:23;10.10;99.90
12015;DHT22;6066;48.138;16.402;2023-04-25T02:29:51;10.00;99.90
12015;DHT22;6066;48.138;16.402;2023-04-25T02:32:18;10.00;99.90
12015;DHT22;6066;48.138;16.402;2023-04-25T02:34:45;10.00;99.90
12015;DHT22;6066;48.138;16.402;2023-04-25T02:37:12;9.90;99.90
12015;DHT22;6066;48.138;16.402;2023-04-25T02:39:38;9.90;99.90
12015;DHT22;6066;48.138;16.402;2023-04-25T02:42:05;9.90;99.90
12015;DHT22;6066;48.138;16.402;2023-04-25T02:44:32;9.80;99.90
12015;DHT22;6066;48.138;16.402;2023-04-25T02:47:00;9.80;99.90
12015;DHT22;6066;48.138;16.402;2023-04-25T02:49:26;9.70;99.90
12015;DHT22;6066;48.138;16.402;2023-04-25T02:51:53;9.70;99.90
12015;DHT22;6066;48.138;16.402;2023-04-25T02:54:20;9.70;99.90
12015;DHT22;6066;48.138;16.402;2023-04-25T02:56:46;9.70;99.90
12015;DHT22;6066;48.138;16.402;2023-04-25T02:59:13;9.70;99.90
12015;DHT22;6066;48.138;16.402;2023-04-25T03:01:40;9.60;99.90
12015;DHT22;6066;48.138;16.402;2023-04-25T03:04:08;9.60;99.90
12015;DHT22;6066;48.138;16.402;2023-04-25T03:06:35;9.60;99.90
12015;DHT22;6066;48.138;16.402;2023-04-25T03:09:01;9.60;99.90
12015;DHT22;6066;48.138;16.402;2023-04-25T03:11:29;9.50;99.90
12015;DHT22;6066;48.138;16.402;2023-04-25T03:13:56;9.50;99.90
12015;DHT22;6066;48.138;16.402;2023-04-25T03:16:22;9.50;99.90
12015;DHT22;6066;48.138;16.402;2023-04-25T03:18:49;9.50;99.90
12015;DHT22;6066;48.138;16.402;2023-04-25T03:21:17;9.50;99.90
12015;DHT22;6066;48.138;16.402;2023-04-25T03:23:44;9.50;99.90
12015;DHT22;6066;48.138;16.402;2023-04-25T03:26:10;9.50;99.90
12015;DHT22;6066;48.138;16.402;2023-04-25T03:28:37;9.40;99.90
12015;DHT22;6066;48.138;16.402;2023-04-25T03:31:05;9.40;99.90
12015;DHT22;6066;48.138;16.402;2023-04-25T03:33:31;9.40;99.90
12015;DHT22;6066;48.138;16.402;2023-04-25T03:35:58;9.40;99.90
12015;DHT22;6066;48.138;16.402;2023-04-25T03:38:26;9.40;99.90
12015;DHT22;6066;48.138;16.402;2023-04-25T03:40:53;9.40;99.90
12015;DHT22;6066;48.138;16.402;2023-04-25T03:43:21;9.30;99.90
12015;DHT22;6066;48.138;16.402;2023-04-25T03:45:48;9.30;99.90
12015;DHT22;6066;48.138;16.402;2023-04-25T03:48:14;9.30;99.90
12015;DHT22;6066;48.138;16.402;2023-04-25T03:50:41;9.30;99.90
12015;DHT22;6066;48.138;16.402;2023-04-25T03:53:08;9.20;99.90
12015;DHT22;6066;48.138;16.402;2023-04-25T03:55:36;9.20;99.90
12015;DHT22;6066;48.138;16.402;2023-04-25T03:58:02;9.20;99.90
12015;DHT22;6066;48.138;16.402;2023-04-25T04:00:30;9.20;99.90
12015;DHT22;6066;48.138;16.402;2023-04-25T04:02:56;9.20;99.90
12015;DHT22;6066;48.138;16.402;2023-04-25T04:05:23;9.20;99.90
12015;DHT22;6066;48.138;16.402;2023-04-25T04:07:50;9.20;99.90
12015;DHT22;6066;48.138;16.402;2023-04-25T04:10:16;9.20;99.90
12015;DHT22;6066;48.138;16.402;2023-04-25T04:12:44;9.20;99.90
12015;DHT22;6066;48.138;16.402;2023-04-25T04:15:11;9.10;99.90
12015;DHT22;6066;48.138;16.402;2023-04-25T04:17:38;9.10;99.90
12015;DHT22;6066;48.138;16.402;2023-04-25T04:20:06;9.10;99.90
12015;DHT22;6066;48.138;16.402;2023-04-25T04:22:33;9.10;99.90
12015;DHT22;6066;48.138;16.402;2023-04-25T04:25:00;9.10;99.90
12015;DHT22;6066;48.138;16.402;2023-04-25T04:27:27;9.10;99.90
12015;DHT22;6066;48.138;16.402;2023-04-25T04:29:56;9.10;99.90
12015;DHT22;6066;48.138;16.402;2023-04-25T04:32:23;9.00;99.90
12015;DHT22;6066;48.138;16.402;2023-04-25T04:34:50;9.00;99.90
12015;DHT22;6066;48.138;16.402;2023-04-25T04:37:17;9.00;99.90
12015;DHT22;6066;48.138;16.402;2023-04-25T04:39:44;9.00;99.90
12015;DHT22;6066;48.138;16.402;2023-04-25T04:42:11;9.00;99.90
12015;DHT22;6066;48.138;16.402;2023-04-25T04:44:38;8.90;99.90
12015;DHT22;6066;48.138;16.402;2023-04-25T04:47:06;9.00;99.90
12015;DHT22;6066;48.138;16.402;2023-04-25T04:49:33;8.90;99.90
12015;DHT22;6066;48.138;16.402;2023-04-25T04:51:59;8.90;99.90
12015;DHT22;6066;48.138;16.402;2023-04-25T04:54:26;8.90;99.90
12015;DHT22;6066;48.138;16.402;2023-04-25T04:56:53;8.90;99.90
12015;DHT22;6066;48.138;16.402;2023-04-25T04:59:20;8.90;99.90
12015;DHT22;6066;48.138;16.402;2023-04-25T05:01:46;8.80;99.90
12015;DHT22;6066;48.138;16.402;2023-04-25T05:04:14;8.80;99.90
12015;DHT22;6066;48.138;16.402;2023-04-25T05:06:41;8.80;99.90
12015;DHT22;6066;48.138;16.402;2023-04-25T05:09:08;8.70;99.90
12015;DHT22;6066;48.138;16.402;2023-04-25T05:11:34;8.70;99.90
12015;DHT22;6066;48.138;16.402;2023-04-25T05:14:01;8.70;99.90
12015;DHT22;6066;48.138;16.402;2023-04-25T05:16:28;8.70;99.90
12015;DHT22;6066;48.138;16.402;2023-04-25T05:18:55;8.70;99.90
12015;DHT22;6066;48.138;16.402;2023-04-25T05:21:23;8.60;99.90
12015;DHT22;6066;48.138;16.402;2023-04-25T05:23:49;8.60;99.90
12015;DHT22;6066;48.138;16.402;2023-04-25T05:26:16;8.60;99.90
12015;DHT22;6066;48.138;16.402;2023-04-25T05:28:43;8.60;99.90
12015;DHT22;6066;48.138;16.402;2023-04-25T05:31:09;8.50;99.90
12015;DHT22;6066;48.138;16.402;2023-04-25T05:33:36;8.60;99.90
12015;DHT22;6066;48.138;16.402;2023-04-25T05:36:03;8.50;99.90
12015;DHT22;6066;48.138;16.402;2023-04-25T05:38:31;8.50;99.90
12015;DHT22;6066;48.138;16.402;2023-04-25T05:40:58;8.50;99.90
12015;DHT22;6066;48.138;16.402;2023-04-25T05:43:25;8.60;99.90
12015;DHT22;6066;48.138;16.402;2023-04-25T05:45:51;8.60;99.90
12015;DHT22;6066;48.138;16.402;2023-04-25T05:48:18;8.70;99.90
12015;DHT22;6066;48.138;16.402;2023-04-25T05:50:45;8.80;99.90
12015;DHT22;6066;48.138;16.402;2023-04-25T05:53:11;8.90;99.90
12015;DHT22;6066;48.138;16.402;2023-04-25T05:55:39;8.90;99.90
12015;DHT22;6066;48.138;16.402;2023-04-25T05:58:06;9.00;99.90
12015;DHT22;6066;48.138;16.402;2023-04-25T06:00:33;9.10;99.90
12015;DHT22;6066;48.138;16.402;2023-04-25T06:02:59;9.20;99.90
12015;DHT22;6066;48.138;16.402;2023-04-25T06:05:26;9.30;99.90
12015;DHT22;6066;48.138;16.402;2023-04-25T06:07:53;9.40;99.90
12015;DHT22;6066;48.138;16.402;2023-04-25T06:10:20;9.50;99.90
12015;DHT22;6066;48.138;16.402;2023-04-25T06:12:48;9.60;99.90
12015;DHT22;6066;48.138;16.402;2023-04-25T06:15:15;9.70;99.90
12015;DHT22;6066;48.138;16.402;2023-04-25T06:17:42;9.90;99.90
12015;DHT22;6066;48.138;16.402;2023-04-25T06:20:09;9.90;99.90
12015;DHT22;6066;48.138;16.402;2023-04-25T06:22:36;10.00;99.90
12015;DHT22;6066;48.138;16.402;2023-04-25T06:25:02;10.10;99.90
12015;DHT22;6066;48.138;16.402;2023-04-25T06:27:29;10.20;99.90
12015;DHT22;6066;48.138;16.402;2023-04-25T06:29:57;10.30;99.90
12015;DHT22;6066;48.138;16.402;2023-04-25T06:32:24;10.40;99.90
12015;DHT22;6066;48.138;16.402;2023-04-25T06:34:52;10.50;99.90
12015;DHT22;6066;48.138;16.402;2023-04-25T06:37:19;10.60;99.90
12015;DHT22;6066;48.138;16.402;2023-04-25T06:39:46;10.60;99.90
12015;DHT22;6066;48.138;16.402;2023-04-25T06:42:12;10.70;99.90
12015;DHT22;6066;48.138;16.402;2023-04-25T06:44:39;10.70;99.90
12015;DHT22;6066;48.138;16.402;2023-04-25T06:47:07;10.90;99.90
12015;DHT22;6066;48.138;16.402;2023-04-25T06:49:34;11.00;99.90
12015;DHT22;6066;48.138;16.402;2023-04-25T06:52:00;11.10;99.90
12015;DHT22;6066;48.138;16.402;2023-04-25T06:54:28;11.10;99.90
12015;DHT22;6066;48.138;16.402;2023-04-25T06:56:55;11.20;99.90
12015;DHT22;6066;48.138;16.402;2023-04-25T06:59:22;11.30;99.90
12015;DHT22;6066;48.138;16.402;2023-04-25T07:01:48;11.40;99.90
12015;DHT22;6066;48.138;16.402;2023-04-25T07:04:16;11.50;99.90
12015;DHT22;6066;48.138;16.402;2023-04-25T07:06:43;11.50;99.90
12015;DHT22;6066;48.138;16.402;2023-04-25T07:09:10;11.60;99.90
12015;DHT22;6066;48.138;16.402;2023-04-25T07:11:37;11.70;99.90
12015;DHT22;6066;48.138;16.402;2023-04-25T07:14:04;11.70;99.90
12015;DHT22;6066;48.138;16.402;2023-04-25T07:16:30;11.80;99.90
12015;DHT22;6066;48.138;16.402;2023-04-25T07:18:57;11.90;99.90
12015;DHT22;6066;48.138;16.402;2023-04-25T07:21:26;11.90;99.90
12015;DHT22;6066;48.138;16.402;2023-04-25T07:23:52;12.00;99.90
12015;DHT22;6066;48.138;16.402;2023-04-25T07:26:19;12.10;99.90
12015;DHT22;6066;48.138;16.402;2023-04-25T07:28:46;12.20;99.90
12015;DHT22;6066;48.138;16.402;2023-04-25T07:31:15;12.20;99.90
12015;DHT22;6066;48.138;16.402;2023-04-25T07:33:43;12.30;99.90
12015;DHT22;6066;48.138;16.402;2023-04-25T07:36:10;12.30;99.90
12015;DHT22;6066;48.138;16.402;2023-04-25T07:38:38;12.30;99.90
12015;DHT22;6066;48.138;16.402;2023-04-25T07:41:05;12.40;99.90
12015;DHT22;6066;48.138;16.402;2023-04-25T07:43:31;12.50;99.90
12015;DHT22;6066;48.138;16.402;2023-04-25T07:45:58;12.60;99.90
12015;DHT22;6066;48.138;16.402;2023-04-25T07:48:25;12.70;99.90
12015;DHT22;6066;48.138;16.402;2023-04-25T07:50:51;12.80;99.90
12015;DHT22;6066;48.138;16.402;2023-04-25T07:53:18;12.90;99.90
12015;DHT22;6066;48.138;16.402;2023-04-25T07:55:46;12.90;99.90
12015;DHT22;6066;48.138;16.402;2023-04-25T07:58:13;12.90;99.90
12015;DHT22;6066;48.138;16.402;2023-04-25T08:00:40;13.10;99.90
12015;DHT22;6066;48.138;16.402;2023-04-25T08:03:09;13.20;99.90
12015;DHT22;6066;48.138;16.402;2023-04-25T08:05:35;13.30;99.90
12015;DHT22;6066;48.138;16.402;2023-04-25T08:08:02;13.50;99.90
12015;DHT22;6066;48.138;16.402;2023-04-25T08:10:31;13.60;99.90
12015;DHT22;6066;48.138;16.402;2023-04-25T08:12:59;13.70;99.90
12015;DHT22;6066;48.138;16.402;2023-04-25T08:15:26;13.80;99.90
12015;DHT22;6066;48.138;16.402;2023-04-25T08:17:53;13.80;99.90
12015;DHT22;6066;48.138;16.402;2023-04-25T08:20:20;13.70;99.90
12015;DHT22;6066;48.138;16.402;2023-04-25T08:22:46;13.70;99.90
12015;DHT22;6066;48.138;16.402;2023-04-25T08:25:14;13.60;99.90
12015;DHT22;6066;48.138;16.402;2023-04-25T08:27:40;13.50;99.90
12015;DHT22;6066;48.138;16.402;2023-04-25T08:30:09;13.50;99.90
12015;DHT22;6066;48.138;16.402;2023-04-25T08:32:35;13.60;99.90
12015;DHT22;6066;48.138;16.402;2023-04-25T08:35:03;13.60;99.90
12015;DHT22;6066;48.138;16.402;2023-04-25T08:37:30;13.50;99.90
12015;DHT22;6066;48.138;16.402;2023-04-25T08:39:57;13.60;99.90
12015;DHT22;6066;48.138;16.402;2023-04-25T08:42:24;13.70;99.90
12015;DHT22;6066;48.138;16.402;2023-04-25T08:44:53;13.80;99.90
12015;DHT22;6066;48.138;16.402;2023-04-25T08:47:22;14.00;99.90
12015;DHT22;6066;48.138;16.402;2023-04-25T08:49:49;14.10;99.90
12015;DHT22;6066;48.138;16.402;2023-04-25T08:52:16;14.10;99.90
12015;DHT22;6066;48.138;16.402;2023-04-25T08:54:48;14.30;99.90
12015;DHT22;6066;48.138;16.402;2023-04-25T08:57:14;14.40;99.90
12015;DHT22;6066;48.138;16.402;2023-04-25T08:59:41;14.60;99.90
12015;DHT22;6066;48.138;16.402;2023-04-25T09:02:11;14.60;99.90
12015;DHT22;6066;48.138;16.402;2023-04-25T09:04:41;14.60;99.90
12015;DHT22;6066;48.138;16.402;2023-04-25T09:07:07;14.70;99.90
12015;DHT22;6066;48.138;16.402;2023-04-25T09:09:34;14.70;99.90
12015;DHT22;6066;48.138;16.402;2023-04-25T09:12:01;14.60;99.90
12015;DHT22;6066;48.138;16.402;2023-04-25T09:14:28;14.40;99.90
12015;DHT22;6066;48.138;16.402;2023-04-25T09:17:01;14.30;99.90
12015;DHT22;6066;48.138;16.402;2023-04-25T09:19:28;14.20;99.90
12015;DHT22;6066;48.138;16.402;2023-04-25T09:21:57;14.10;99.90
12015;DHT22;6066;48.138;16.402;2023-04-25T09:24:31;14.10;99.90
12015;DHT22;6066;48.138;16.402;2023-04-25T09:26:58;14.30;99.90
12015;DHT22;6066;48.138;16.402;2023-04-25T09:29:28;14.40;99.90
12015;DHT22;6066;48.138;16.402;2023-04-25T09:32:03;14.30;99.90
12015;DHT22;6066;48.138;16.402;2023-04-25T09:34:38;14.10;99.90
12015;DHT22;6066;48.138;16.402;2023-04-25T09:37:06;13.80;99.90
12015;DHT22;6066;48.138;16.402;2023-04-25T09:39:33;13.60;99.90
12015;DHT22;6066;48.138;16.402;2023-04-25T09:42:00;13.30;99.90
12015;DHT22;6066;48.138;16.402;2023-04-25T09:44:26;13.00;99.90
12015;DHT22;6066;48.138;16.402;2023-04-25T09:46:53;12.60;99.90
12015;DHT22;6066;48.138;16.402;2023-04-25T09:49:20;12.20;99.90
12015;DHT22;6066;48.138;16.402;2023-04-25T09:51:53;12.00;99.90
12015;DHT22;6066;48.138;16.402;2023-04-25T09:54:21;11.80;99.90
12015;DHT22;6066;48.138;16.402;2023-04-25T09:56:48;11.60;99.90
12015;DHT22;6066;48.138;16.402;2023-04-25T09:59:17;11.50;99.90
12015;DHT22;6066;48.138;16.402;2023-04-25T10:01:45;11.50;99.90
12015;DHT22;6066;48.138;16.402;2023-04-25T10:04:12;11.50;99.90
12015;DHT22;6066;48.138;16.402;2023-04-25T10:06:39;11.60;99.90
12015;DHT22;6066;48.138;16.402;2023-04-25T10:09:08;11.80;99.90
12015;DHT22;6066;48.138;16.402;2023-04-25T10:11:36;12.00;99.90
12015;DHT22;6066;48.138;16.402;2023-04-25T10:14:03;12.20;99.90
12015;DHT22;6066;48.138;16.402;2023-04-25T10:16:30;12.40;99.90
12015;DHT22;6066;48.138;16.402;2023-04-25T10:18:56;12.70;99.90
12015;DHT22;6066;48.138;16.402;2023-04-25T10:21:23;13.20;99.90
12015;DHT22;6066;48.138;16.402;2023-04-25T10:23:52;13.70;99.90
12015;DHT22;6066;48.138;16.402;2023-04-25T10:26:19;14.00;99.90
12015;DHT22;6066;48.138;16.402;2023-04-25T10:28:58;14.10;99.90
12015;DHT22;6066;48.138;16.402;2023-04-25T10:31:26;14.00;99.90
12015;DHT22;6066;48.138;16.402;2023-04-25T10:33:53;13.50;99.90
12015;DHT22;6066;48.138;16.402;2023-04-25T10:36:21;13.10;99.90
12015;DHT22;6066;48.138;16.402;2023-04-25T10:38:48;12.80;99.90
12015;DHT22;6066;48.138;16.402;2023-04-25T10:41:17;12.50;99.90
12015;DHT22;6066;48.138;16.402;2023-04-25T10:43:44;12.30;99.90
12015;DHT22;6066;48.138;16.402;2023-04-25T10:46:19;12.10;99.90
12015;DHT22;6066;48.138;16.402;2023-04-25T10:48:48;12.00;99.90
12015;DHT22;6066;48.138;16.402;2023-04-25T10:51:16;12.00;99.90
12015;DHT22;6066;48.138;16.402;2023-04-25T10:53:43;12.10;99.90
12015;DHT22;6066;48.138;16.402;2023-04-25T10:56:10;12.30;99.90
12015;DHT22;6066;48.138;16.402;2023-04-25T10:58:41;12.70;99.90
12015;DHT22;6066;48.138;16.402;2023-04-25T11:01:08;13.20;99.90
12015;DHT22;6066;48.138;16.402;2023-04-25T11:03:39;13.60;99.90
12015;DHT22;6066;48.138;16.402;2023-04-25T11:06:06;14.10;99.90
12015;DHT22;6066;48.138;16.402;2023-04-25T11:08:37;14.50;99.90
12015;DHT22;6066;48.138;16.402;2023-04-25T11:11:07;14.90;99.90
12015;DHT22;6066;48.138;16.402;2023-04-25T11:13:34;15.20;99.90
12015;DHT22;6066;48.138;16.402;2023-04-25T11:16:01;15.60;99.90
12015;DHT22;6066;48.138;16.402;2023-04-25T11:18:28;15.80;99.90
12015;DHT22;6066;48.138;16.402;2023-04-25T11:20:56;15.90;99.90
12015;DHT22;6066;48.138;16.402;2023-04-25T11:23:23;16.10;99.90
12015;DHT22;6066;48.138;16.402;2023-04-25T11:25:49;16.30;99.90
12015;DHT22;6066;48.138;16.402;2023-04-25T11:28:20;16.20;99.90
12015;DHT22;6066;48.138;16.402;2023-04-25T11:30:47;16.10;99.90
12015;DHT22;6066;48.138;16.402;2023-04-25T11:33:14;16.00;99.90
12015;DHT22;6066;48.138;16.402;2023-04-25T11:35:41;16.00;99.90
12015;DHT22;6066;48.138;16.402;2023-04-25T11:38:09;16.10;99.90
12015;DHT22;6066;48.138;16.402;2023-04-25T11:40:36;15.80;99.90
12015;DHT22;6066;48.138;16.402;2023-04-25T11:43:02;15.20;99.90
12015;DHT22;6066;48.138;16.402;2023-04-25T11:45:30;14.40;99.90
12015;DHT22;6066;48.138;16.402;2023-04-25T11:47:57;13.70;99.90
12015;DHT22;6066;48.138;16.402;2023-04-25T11:50:23;13.10;99.90
12015;DHT22;6066;48.138;16.402;2023-04-25T11:52:50;12.40;99.90
12015;DHT22;6066;48.138;16.402;2023-04-25T11:55:19;11.80;99.90
12015;DHT22;6066;48.138;16.402;2023-04-25T11:57:46;11.20;99.90
12015;DHT22;6066;48.138;16.402;2023-04-25T12:00:15;10.60;99.90
12015;DHT22;6066;48.138;16.402;2023-04-25T12:02:42;10.20;99.90
12015;DHT22;6066;48.138;16.402;2023-04-25T12:05:10;9.90;99.90
12015;DHT22;6066;48.138;16.402;2023-04-25T12:07:37;9.60;99.90
12015;DHT22;6066;48.138;16.402;2023-04-25T12:10:04;9.40;99.90
12015;DHT22;6066;48.138;16.402;2023-04-25T12:12:33;9.30;99.90
12015;DHT22;6066;48.138;16.402;2023-04-25T12:15:08;9.30;99.90
12015;DHT22;6066;48.138;16.402;2023-04-25T12:17:35;9.40;99.90
12015;DHT22;6066;48.138;16.402;2023-04-25T12:20:05;9.70;99.90
12015;DHT22;6066;48.138;16.402;2023-04-25T12:22:32;10.00;99.90
12015;DHT22;6066;48.138;16.402;2023-04-25T12:24:59;10.30;99.90
12015;DHT22;6066;48.138;16.402;2023-04-25T12:27:26;10.60;99.90
12015;DHT22;6066;48.138;16.402;2023-04-25T12:29:54;10.90;99.90
12015;DHT22;6066;48.138;16.402;2023-04-25T12:32:22;11.20;99.90
12015;DHT22;6066;48.138;16.402;2023-04-25T12:34:48;11.50;99.90
12015;DHT22;6066;48.138;16.402;2023-04-25T12:37:15;11.80;99.90
12015;DHT22;6066;48.138;16.402;2023-04-25T12:39:42;12.10;99.90
12015;DHT22;6066;48.138;16.402;2023-04-25T12:42:08;12.30;99.90
12015;DHT22;6066;48.138;16.402;2023-04-25T12:44:37;12.50;99.90
12015;DHT22;6066;48.138;16.402;2023-04-25T12:47:05;12.60;99.90
12015;DHT22;6066;48.138;16.402;2023-04-25T12:49:31;12.90;99.90
12015;DHT22;6066;48.138;16.402;2023-04-25T12:51:58;13.00;99.90
12015;DHT22;6066;48.138;16.402;2023-04-25T12:54:25;13.10;99.90
12015;DHT22;6066;48.138;16.402;2023-04-25T12:56:52;13.30;99.90
12015;DHT22;6066;48.138;16.402;2023-04-25T12:59:18;13.20;99.90
12015;DHT22;6066;48.138;16.402;2023-04-25T13:01:46;13.00;99.90
12015;DHT22;6066;48.138;16.402;2023-04-25T13:04:14;12.90;99.90
12015;DHT22;6066;48.138;16.402;2023-04-25T13:06:41;13.00;99.90
12015;DHT22;6066;48.138;16.402;2023-04-25T13:09:08;13.20;99.90
12015;DHT22;6066;48.138;16.402;2023-04-25T13:11:34;13.50;99.90
12015;DHT22;6066;48.138;16.402;2023-04-25T13:14:01;13.70;99.90
12015;DHT22;6066;48.138;16.402;2023-04-25T13:16:28;14.00;99.90
12015;DHT22;6066;48.138;16.402;2023-04-25T13:18:55;14.20;99.90
12015;DHT22;6066;48.138;16.402;2023-04-25T13:21:23;14.40;99.90
12015;DHT22;6066;48.138;16.402;2023-04-25T13:23:50;14.60;99.90
12015;DHT22;6066;48.138;16.402;2023-04-25T13:26:17;14.70;99.90
12015;DHT22;6066;48.138;16.402;2023-04-25T13:28:44;14.70;99.90
12015;DHT22;6066;48.138;16.402;2023-04-25T13:31:10;14.80;99.90
12015;DHT22;6066;48.138;16.402;2023-04-25T13:33:37;14.90;99.90
12015;DHT22;6066;48.138;16.402;2023-04-25T13:36:04;14.80;99.90
12015;DHT22;6066;48.138;16.402;2023-04-25T13:38:32;14.80;99.90
12015;DHT22;6066;48.138;16.402;2023-04-25T13:40:59;15.00;99.90
12015;DHT22;6066;48.138;16.402;2023-04-25T13:43:26;15.20;99.90
12015;DHT22;6066;48.138;16.402;2023-04-25T13:45:53;15.20;99.90
12015;DHT22;6066;48.138;16.402;2023-04-25T13:48:19;15.00;99.90
12015;DHT22;6066;48.138;16.402;2023-04-25T13:50:46;14.80;99.90
12015;DHT22;6066;48.138;16.402;2023-04-25T13:53:13;15.00;99.90
12015;DHT22;6066;48.138;16.402;2023-04-25T13:55:41;15.30;99.90
12015;DHT22;6066;48.138;16.402;2023-04-25T13:58:07;15.50;99.90
12015;DHT22;6066;48.138;16.402;2023-04-25T14:00:35;15.60;99.90
12015;DHT22;6066;48.138;16.402;2023-04-25T14:03:03;15.80;99.90
12015;DHT22;6066;48.138;16.402;2023-04-25T14:05:32;15.90;99.90
12015;DHT22;6066;48.138;16.402;2023-04-25T14:08:03;15.70;99.90
12015;DHT22;6066;48.138;16.402;2023-04-25T14:10:30;15.40;99.90
12015;DHT22;6066;48.138;16.402;2023-04-25T14:12:58;15.40;99.90
12015;DHT22;6066;48.138;16.402;2023-04-25T14:15:25;15.10;99.90
12015;DHT22;6066;48.138;16.402;2023-04-25T14:17:52;14.90;99.90
12015;DHT22;6066;48.138;16.402;2023-04-25T14:20:19;14.80;99.90
12015;DHT22;6066;48.138;16.402;2023-04-25T14:22:46;14.70;99.90
12015;DHT22;6066;48.138;16.402;2023-04-25T14:25:13;14.70;99.90
12015;DHT22;6066;48.138;16.402;2023-04-25T14:27:40;14.70;99.90
12015;DHT22;6066;48.138;16.402;2023-04-25T14:30:08;14.80;99.90
12015;DHT22;6066;48.138;16.402;2023-04-25T14:32:37;14.80;99.90
12015;DHT22;6066;48.138;16.402;2023-04-25T14:35:04;14.60;99.90
12015;DHT22;6066;48.138;16.402;2023-04-25T14:37:32;14.40;99.90
12015;DHT22;6066;48.138;16.402;2023-04-25T14:39:59;14.10;99.90
12015;DHT22;6066;48.138;16.402;2023-04-25T14:42:25;13.90;99.90
12015;DHT22;6066;48.138;16.402;2023-04-25T14:44:52;13.90;99.90
12015;DHT22;6066;48.138;16.402;2023-04-25T14:47:20;14.00;99.90
12015;DHT22;6066;48.138;16.402;2023-04-25T14:49:47;14.30;99.90
12015;DHT22;6066;48.138;16.402;2023-04-25T14:52:19;14.60;99.90
12015;DHT22;6066;48.138;16.402;2023-04-25T14:54:46;14.70;99.90
12015;DHT22;6066;48.138;16.402;2023-04-25T14:57:13;14.40;99.90
12015;DHT22;6066;48.138;16.402;2023-04-25T14:59:39;14.20;99.90
12015;DHT22;6066;48.138;16.402;2023-04-25T15:02:06;14.00;99.90
12015;DHT22;6066;48.138;16.402;2023-04-25T15:04:34;14.00;99.90
12015;DHT22;6066;48.138;16.402;2023-04-25T15:07:01;14.10;99.90
12015;DHT22;6066;48.138;16.402;2023-04-25T15:09:28;14.30;99.90
12015;DHT22;6066;48.138;16.402;2023-04-25T15:11:54;14.60;99.90
12015;DHT22;6066;48.138;16.402;2023-04-25T15:14:21;14.80;99.90
12015;DHT22;6066;48.138;16.402;2023-04-25T15:16:48;15.10;99.90
12015;DHT22;6066;48.138;16.402;2023-04-25T15:19:15;15.10;99.90
12015;DHT22;6066;48.138;16.402;2023-04-25T15:21:43;14.90;99.90
12015;DHT22;6066;48.138;16.402;2023-04-25T15:24:10;14.60;99.90
12015;DHT22;6066;48.138;16.402;2023-04-25T15:26:36;14.30;99.90
12015;DHT22;6066;48.138;16.402;2023-04-25T15:29:03;14.00;99.90
12015;DHT22;6066;48.138;16.402;2023-04-25T15:31:30;13.80;99.90
12015;DHT22;6066;48.138;16.402;2023-04-25T15:33:57;13.70;99.90